sensor_id;sensor_type;location;lat;lon;timestamp;temperature;humidity
11934;DHT22;6026;48.784;9.198;2023-12-20T00:00:17;6.60;99.90
11934;DHT22;6026;48.784;9.198;2023-12-20T00:02:43;6.50;99.90
11934;DHT22;6026;48.784;9.198;2023-12-20T00:05:13;6.50;99.90
11934;DHT22;6026;48.784;9.198;2023-12-20T00:07:39;6.50;99.90
11934;DHT22;6026;48.784;9.198;2023-12-20T00:10:04;6.50;99.90
11934;DHT22;6026;48.784;9.198;2023-12-20T00:12:30;6.50;99.90
11934;DHT22;6026;48.784;9.198;2023-12-20T00:14:55;6.50;99.90
11934;DHT22;6026;48.784;9.198;2023-12-20T00:17:21;6.60;99.90
11934;DHT22;6026;48.784;9.198;2023-12-20T00:19:46;6.60;99.90
11934;DHT22;6026;48.784;9.198;2023-12-20T00:22:12;6.60;99.90
11934;DHT22;6026;48.784;9.198;2023-12-20T00:24:38;6.60;99.90
11934;DHT22;6026;48.784;9.198;2023-12-20T00:27:03;6.60;99.90
11934;DHT22;6026;48.784;9.198;2023-12-20T00:29:29;6.50;99.90
11934;DHT22;6026;48.784;9.198;2023-12-20T00:31:54;6.50;99.90
11934;DHT22;6026;48.784;9.198;2023-12-20T00:34:20;6.40;99.90
11934;DHT22;6026;48.784;9.198;2023-12-20T00:36:45;6.30;99.90
11934;DHT22;6026;48.784;9.198;2023-12-20T00:39:11;6.30;99.90
11934;DHT22;6026;48.784;9.198;2023-12-20T00:41:36;6.20;99.90
11934;DHT22;6026;48.784;9.198;2023-12-20T00:44:02;6.10;99.90
11934;DHT22;6026;48.784;9.198;2023-12-20T00:46:28;6.00;99.90
11934;DHT22;6026;48.784;9.198;2023-12-20T00:48:53;6.00;99.90
11934;DHT22;6026;48.784;9.198;2023-12-20T00:51:19;5.90;99.90
11934;DHT22;6026;48.784;9.198;2023-12-20T00:53:44;5.90;99.90
11934;DHT22;6026;48.784;9.198;2023-12-20T00:56:11;5.90;99.90
11934;DHT22;6026;48.784;9.198;2023-12-20T00:58:37;5.80;99.90
11934;DHT22;6026;48.784;9.198;2023-12-20T01:01:02;5.80;99.90
11934;DHT22;6026;48.784;9.198;2023-12-20T01:03:29;5.80;99.90
11934;DHT22;6026;48.784;9.198;2023-12-20T01:05:55;5.80;99.90
11934;DHT22;6026;48.784;9.198;2023-12-20T01:08:20;5.80;99.90
11934;DHT22;6026;48.784;9.198;2023-12-20T01:10:46;5.70;99.90
11934;DHT22;6026;48.784;9.198;2023-12-20T01:13:12;5.70;99.90
11934;DHT22;6026;48.784;9.198;2023-12-20T01:15:37;5.70;99.90
11934;DHT22;6026;48.784;9.198;2023-12-20T01:18:03;5.70;99.90
11934;DHT22;6026;48.784;9.198;2023-12-20T01:20:29;5.70;99.90
11934;DHT22;6026;48.784;9.198;2023-12-20T01:22:54;5.80;99.90
11934;DHT22;6026;48.784;9.198;2023-12-20T01:25:20;5.70;99.90
11934;DHT22;6026;48.784;9.198;2023-12-20T01:27:45;5.70;99.90
11934;DHT22;6026;48.784;9.198;2023-12-20T01:30:11;5.70;99.90
11934;DHT22;6026;48.784;9.198;2023-12-20T01:32:37;5.70;99.90
11934;DHT22;6026;48.784;9.198;2023-12-20T01:35:02;5.70;99.90
11934;DHT22;6026;48.784;9.198;2023-12-20T01:37:28;5.70;99.90
11934;DHT22;6026;48.784;9.198;2023-12-20T01:39:54;5.70;99.90
11934;DHT22;6026;48.784;9.198;2023-12-20T01:42:20;5.70;99.90
11934;DHT22;6026;48.784;9.198;2023-12-20T01:44:47;5.70;99.90
11934;DHT22;6026;48.784;9.198;2023-12-20T01:47:13;5.70;99.90
11934;DHT22;6026;48.784;9.198;2023-12-20T01:49:39;5.70;99.90
11934;DHT22;6026;48.784;9.198;2023-12-20T01:52:05;5.70;99.90
11934;DHT22;6026;48.784;9.198;2023-12-20T01:54:31;5.60;99.90
11934;DHT22;6026;48.784;9.198;2023-12-20T01:56:57;5.70;99.90
11934;DHT22;6026;48.784;9.198;2023-12-20T01:59:22;5.60;99.90
11934;DHT22;6026;48.784;9.198;2023-12-20T02:01:48;5.60;99.90
11934;DHT22;6026;48.784;9.198;2023-12-20T02:04:14;5.60;99.90
11934;DHT22;6026;48.784;9.198;2023-12-20T02:06:40;5.70;99.90
11934;DHT22;6026;48.784;9.198;2023-12-20T02:09:07;5.60;99.90
11934;DHT22;6026;48.784;9.198;2023-12-20T02:11:33;5.60;99.90
11934;DHT22;6026;48.784;9.198;2023-12-20T02:14:00;5.60;99.90
11934;DHT22;6026;48.784;9.198;2023-12-20T02:16:27;5.60;99.90
11934;DHT22;6026;48.784;9.198;2023-12-20T02:18:52;5.60;99.90
11934;DHT22;6026;48.784;9.198;2023-12-20T02:21:18;5.60;99.90
11934;DHT22;6026;48.784;9.198;2023-12-20T02:23:43;5.60;99.90
11934;DHT22;6026;48.784;9.198;2023-12-20T02:26:09;5.60;99.90
11934;DHT22;6026;48.784;9.198;2023-12-20T02:28:34;5.60;99.90
11934;DHT22;6026;48.784;9.198;2023-12-20T02:31:00;5.60;99.90
11934;DHT22;6026;48.784;9.198;2023-12-20T02:33:26;5.60;99.90
11934;DHT22;6026;48.784;9.198;2023-12-20T02:35:51;5.60;99.90
11934;DHT22;6026;48.784;9.198;2023-12-20T02:38:18;5.60;99.90
11934;DHT22;6026;48.784;9.198;2023-12-20T02:40:43;5.60;99.90
11934;DHT22;6026;48.784;9.198;2023-12-20T02:43:09;5.60;99.90
11934;DHT22;6026;48.784;9.198;2023-12-20T02:45:34;5.60;99.90
11934;DHT22;6026;48.784;9.198;2023-12-20T02:48:00;5.60;99.90
11934;DHT22;6026;48.784;9.198;2023-12-20T02:50:25;5.60;99.90
11934;DHT22;6026;48.784;9.198;2023-12-20T02:52:51;5.60;99.90
11934;DHT22;6026;48.784;9.198;2023-12-20T02:55:17;5.60;99.90
11934;DHT22;6026;48.784;9.198;2023-12-20T02:57:42;5.60;99.90
11934;DHT22;6026;48.784;9.198;2023-12-20T03:00:11;5.60;99.90
11934;DHT22;6026;48.784;9.198;2023-12-20T03:02:37;5.60;99.90
11934;DHT22;6026;48.784;9.198;2023-12-20T03:05:03;5.60;99.90
11934;DHT22;6026;48.784;9.198;2023-12-20T03:07:28;5.60;99.90
11934;DHT22;6026;48.784;9.198;2023-12-20T03:09:54;5.60;99.90
11934;DHT22;6026;48.784;9.198;2023-12-20T03:12:19;5.60;99.90
11934;DHT22;6026;48.784;9.198;2023-12-20T03:14:45;5.70;99.90
11934;DHT22;6026;48.784;9.198;2023-12-20T03:17:11;5.70;99.90
11934;DHT22;6026;48.784;9.198;2023-12-20T03:19:36;5.70;99.90
11934;DHT22;6026;48.784;9.198;2023-12-20T03:22:02;5.70;99.90
11934;DHT22;6026;48.784;9.198;2023-12-20T03:24:27;5.70;99.90
11934;DHT22;6026;48.784;9.198;2023-12-20T03:26:53;5.70;99.90
11934;DHT22;6026;48.784;9.198;2023-12-20T03:29:19;5.70;99.90
11934;DHT22;6026;48.784;9.198;2023-12-20T03:31:44;5.70;99.90
11934;DHT22;6026;48.784;9.198;2023-12-20T03:34:11;5.70;99.90
11934;DHT22;6026;48.784;9.198;2023-12-20T03:36:37;5.80;99.90
11934;DHT22;6026;48.784;9.198;2023-12-20T03:39:02;5.70;99.90
11934;DHT22;6026;48.784;9.198;2023-12-20T03:41:28;5.70;99.90
11934;DHT22;6026;48.784;9.198;2023-12-20T03:43:53;5.70;99.90
11934;DHT22;6026;48.784;9.198;2023-12-20T03:46:19;5.70;99.90
11934;DHT22;6026;48.784;9.198;2023-12-20T03:48:45;5.70;99.90
11934;DHT22;6026;48.784;9.198;2023-12-20T03:51:10;5.70;99.90
11934;DHT22;6026;48.784;9.198;2023-12-20T03:53:36;5.60;99.90
11934;DHT22;6026;48.784;9.198;2023-12-20T03:56:01;5.60;99.90
11934;DHT22;6026;48.784;9.198;2023-12-20T03:58:27;5.60;99.90
11934;DHT22;6026;48.784;9.198;2023-12-20T04:00:52;5.60;99.90
11934;DHT22;6026;48.784;9.198;2023-12-20T04:03:18;5.60;99.90
11934;DHT22;6026;48.784;9.198;2023-12-20T04:05:43;5.50;99.90
11934;DHT22;6026;48.784;9.198;2023-12-20T04:08:09;5.50;99.90
11934;DHT22;6026;48.784;9.198;2023-12-20T04:10:35;5.50;99.90
11934;DHT22;6026;48.784;9.198;2023-12-20T04:13:00;5.50;99.90
11934;DHT22;6026;48.784;9.198;2023-12-20T04:15:26;5.50;99.90
11934;DHT22;6026;48.784;9.198;2023-12-20T04:17:51;5.50;99.90
11934;DHT22;6026;48.784;9.198;2023-12-20T04:20:17;5.50;99.90
11934;DHT22;6026;48.784;9.198;2023-12-20T04:22:43;5.50;99.90
11934;DHT22;6026;48.784;9.198;2023-12-20T04:25:08;5.50;99.90
11934;DHT22;6026;48.784;9.198;2023-12-20T04:27:35;5.40;99.90
11934;DHT22;6026;48.784;9.198;2023-12-20T04:30:00;5.40;99.90
11934;DHT22;6026;48.784;9.198;2023-12-20T04:32:26;5.40;99.90
11934;DHT22;6026;48.784;9.198;2023-12-20T04:34:51;5.50;99.90
11934;DHT22;6026;48.784;9.198;2023-12-20T04:37:17;5.50;99.90
11934;DHT22;6026;48.784;9.198;2023-12-20T04:39:42;5.50;99.90
11934;DHT22;6026;48.784;9.198;2023-12-20T04:42:08;5.50;99.90
11934;DHT22;6026;48.784;9.198;2023-12-20T04:44:34;5.50;99.90
11934;DHT22;6026;48.784;9.198;2023-12-20T04:46:59;5.50;99.90
11934;DHT22;6026;48.784;9.198;2023-12-20T04:49:25;5.40;99.90
11934;DHT22;6026;48.784;9.198;2023-12-20T04:51:51;5.40;99.90
11934;DHT22;6026;48.784;9.198;2023-12-20T04:54:16;5.40;99.90
11934;DHT22;6026;48.784;9.198;2023-12-20T04:56:42;5.40;99.90
11934;DHT22;6026;48.784;9.198;2023-12-20T04:59:08;5.40;99.90
11934;DHT22;6026;48.784;9.198;2023-12-20T05:01:33;5.40;99.90
11934;DHT22;6026;48.784;9.198;2023-12-20T05:03:59;5.40;99.90
11934;DHT22;6026;48.784;9.198;2023-12-20T05:06:24;5.40;99.90
11934;DHT22;6026;48.784;9.198;2023-12-20T05:08:50;5.40;99.90
11934;DHT22;6026;48.784;9.198;2023-12-20T05:11:15;5.40;99.90
11934;DHT22;6026;48.784;9.198;2023-12-20T05:13:41;5.40;99.90
11934;DHT22;6026;48.784;9.198;2023-12-20T05:16:07;5.40;99.90
11934;DHT22;6026;48.784;9.198;2023-12-20T05:18:34;5.40;99.90
11934;DHT22;6026;48.784;9.198;2023-12-20T05:20:59;5.40;99.90
11934;DHT22;6026;48.784;9.198;2023-12-20T05:23:25;5.40;99.90
11934;DHT22;6026;48.784;9.198;2023-12-20T05:25:51;5.40;99.90
11934;DHT22;6026;48.784;9.198;2023-12-20T05:28:16;5.40;99.90
11934;DHT22;6026;48.784;9.198;2023-12-20T05:30:42;5.40;99.90
11934;DHT22;6026;48.784;9.198;2023-12-20T05:33:08;5.40;99.90
11934;DHT22;6026;48.784;9.198;2023-12-20T05:35:34;5.40;99.90
11934;DHT22;6026;48.784;9.198;2023-12-20T05:38:00;5.40;99.90
11934;DHT22;6026;48.784;9.198;2023-12-20T05:40:26;5.50;99.90
11934;DHT22;6026;48.784;9.198;2023-12-20T05:42:51;5.40;99.90
11934;DHT22;6026;48.784;9.198;2023-12-20T05:45:17;5.50;99.90
11934;DHT22;6026;48.784;9.198;2023-12-20T05:47:42;5.50;99.90
11934;DHT22;6026;48.784;9.198;2023-12-20T05:50:08;5.40;99.90
11934;DHT22;6026;48.784;9.198;2023-12-20T05:52:34;5.40;99.90
11934;DHT22;6026;48.784;9.198;2023-12-20T05:54:59;5.40;99.90
11934;DHT22;6026;48.784;9.198;2023-12-20T05:57:27;5.40;99.90
11934;DHT22;6026;48.784;9.198;2023-12-20T05:59:53;5.40;99.90
11934;DHT22;6026;48.784;9.198;2023-12-20T06:02:18;5.40;99.90
11934;DHT22;6026;48.784;9.198;2023-12-20T06:04:44;5.40;99.90
11934;DHT22;6026;48.784;9.198;2023-12-20T06:07:12;5.40;99.90
11934;DHT22;6026;48.784;9.198;2023-12-20T06:09:38;5.40;99.90
11934;DHT22;6026;48.784;9.198;2023-12-20T06:12:03;5.40;99.90
11934;DHT22;6026;48.784;9.198;2023-12-20T06:14:29;5.40;99.90
11934;DHT22;6026;48.784;9.198;2023-12-20T06:16:56;5.40;99.90
11934;DHT22;6026;48.784;9.198;2023-12-20T06:19:21;5.40;99.90
11934;DHT22;6026;48.784;9.198;2023-12-20T06:21:47;5.40;99.90
11934;DHT22;6026;48.784;9.198;2023-12-20T06:24:13;5.40;99.90
11934;DHT22;6026;48.784;9.198;2023-12-20T06:26:38;5.40;99.90
11934;DHT22;6026;48.784;9.198;2023-12-20T06:29:04;5.50;99.90
11934;DHT22;6026;48.784;9.198;2023-12-20T06:31:29;5.50;99.90
11934;DHT22;6026;48.784;9.198;2023-12-20T06:33:55;5.50;99.90
11934;DHT22;6026;48.784;9.198;2023-12-20T06:36:23;5.50;99.90
11934;DHT22;6026;48.784;9.198;2023-12-20T06:38:49;5.50;99.90
11934;DHT22;6026;48.784;9.198;2023-12-20T06:41:15;5.50;99.90
11934;DHT22;6026;48.784;9.198;2023-12-20T06:43:42;5.50;99.90
11934;DHT22;6026;48.784;9.198;2023-12-20T06:46:07;5.50;99.90
11934;DHT22;6026;48.784;9.198;2023-12-20T06:48:34;5.50;99.90
11934;DHT22;6026;48.784;9.198;2023-12-20T06:51:01;5.50;99.90
11934;DHT22;6026;48.784;9.198;2023-12-20T06:53:29;5.50;99.90
11934;DHT22;6026;48.784;9.198;2023-12-20T06:55:55;5.60;99.90
11934;DHT22;6026;48.784;9.198;2023-12-20T06:58:24;5.60;99.90
11934;DHT22;6026;48.784;9.198;2023-12-20T07:00:50;5.50;99.90
11934;DHT22;6026;48.784;9.198;2023-12-20T07:03:16;5.50;99.90
11934;DHT22;6026;48.784;9.198;2023-12-20T07:05:42;5.50;99.90
11934;DHT22;6026;48.784;9.198;2023-12-20T07:08:08;5.50;99.90
11934;DHT22;6026;48.784;9.198;2023-12-20T07:10:33;5.60;99.90
11934;DHT22;6026;48.784;9.198;2023-12-20T07:12:59;5.60;99.90
11934;DHT22;6026;48.784;9.198;2023-12-20T07:15:24;5.60;99.90
11934;DHT22;6026;48.784;9.198;2023-12-20T07:17:50;5.60;99.90
11934;DHT22;6026;48.784;9.198;2023-12-20T07:20:15;5.60;99.90
11934;DHT22;6026;48.784;9.198;2023-12-20T07:22:41;5.60;99.90
11934;DHT22;6026;48.784;9.198;2023-12-20T07:25:07;5.60;99.90
11934;DHT22;6026;48.784;9.198;2023-12-20T07:27:33;5.60;99.90
11934;DHT22;6026;48.784;9.198;2023-12-20T07:29:58;5.60;99.90
11934;DHT22;6026;48.784;9.198;2023-12-20T07:32:24;5.60;99.90
11934;DHT22;6026;48.784;9.198;2023-12-20T07:34:49;5.60;99.90
11934;DHT22;6026;48.784;9.198;2023-12-20T07:37:15;5.60;99.90
11934;DHT22;6026;48.784;9.198;2023-12-20T07:39:41;5.60;99.90
11934;DHT22;6026;48.784;9.198;2023-12-20T07:42:09;5.60;99.90
11934;DHT22;6026;48.784;9.198;2023-12-20T07:44:35;5.60;99.90
11934;DHT22;6026;48.784;9.198;2023-12-20T07:47:03;5.60;99.90
11934;DHT22;6026;48.784;9.198;2023-12-20T07:49:30;5.60;99.90
11934;DHT22;6026;48.784;9.198;2023-12-20T07:51:56;5.60;99.90
11934;DHT22;6026;48.784;9.198;2023-12-20T07:54:21;5.60;99.90
11934;DHT22;6026;48.784;9.198;2023-12-20T07:56:47;5.60;99.90
11934;DHT22;6026;48.784;9.198;2023-12-20T07:59:14;5.50;99.90
11934;DHT22;6026;48.784;9.198;2023-12-20T08:01:39;5.50;99.90
11934;DHT22;6026;48.784;9.198;2023-12-20T08:04:05;5.40;99.90
11934;DHT22;6026;48.784;9.198;2023-12-20T08:06:30;5.40;99.90
11934;DHT22;6026;48.784;9.198;2023-12-20T08:08:56;5.30;99.90
11934;DHT22;6026;48.784;9.198;2023-12-20T08:11:22;5.40;99.90
11934;DHT22;6026;48.784;9.198;2023-12-20T08:13:48;5.40;99.90
11934;DHT22;6026;48.784;9.198;2023-12-20T08:16:13;5.30;99.90
11934;DHT22;6026;48.784;9.198;2023-12-20T08:18:41;5.20;99.90
11934;DHT22;6026;48.784;9.198;2023-12-20T08:21:06;5.20;99.90
11934;DHT22;6026;48.784;9.198;2023-12-20T08:23:34;5.10;99.90
11934;DHT22;6026;48.784;9.198;2023-12-20T08:26:04;5.10;99.90
11934;DHT22;6026;48.784;9.198;2023-12-20T08:28:30;5.20;99.90
11934;DHT22;6026;48.784;9.198;2023-12-20T08:30:56;5.10;99.90
11934;DHT22;6026;48.784;9.198;2023-12-20T08:33:22;5.10;99.90
11934;DHT22;6026;48.784;9.198;2023-12-20T08:35:47;5.10;99.90
11934;DHT22;6026;48.784;9.198;2023-12-20T08:38:13;5.10;99.90
11934;DHT22;6026;48.784;9.198;2023-12-20T08:40:39;5.20;99.90
11934;DHT22;6026;48.784;9.198;2023-12-20T08:43:05;5.20;99.90
11934;DHT22;6026;48.784;9.198;2023-12-20T08:45:30;5.20;99.90
11934;DHT22;6026;48.784;9.198;2023-12-20T08:47:56;5.20;99.90
11934;DHT22;6026;48.784;9.198;2023-12-20T08:50:21;5.20;99.90
11934;DHT22;6026;48.784;9.198;2023-12-20T08:52:47;5.10;99.90
11934;DHT22;6026;48.784;9.198;2023-12-20T08:55:15;5.10;99.90
11934;DHT22;6026;48.784;9.198;2023-12-20T08:57:41;5.10;99.90
11934;DHT22;6026;48.784;9.198;2023-12-20T09:00:07;5.10;99.90
11934;DHT22;6026;48.784;9.198;2023-12-20T09:02:33;5.10;99.90
11934;DHT22;6026;48.784;9.198;2023-12-20T09:05:01;5.30;99.90
11934;DHT22;6026;48.784;9.198;2023-12-20T09:07:27;5.40;99.90
11934;DHT22;6026;48.784;9.198;2023-12-20T09:09:56;5.60;99.90
11934;DHT22;6026;48.784;9.198;2023-12-20T09:12:22;6.00;99.90
11934;DHT22;6026;48.784;9.198;2023-12-20T09:14:49;6.30;99.90
11934;DHT22;6026;48.784;9.198;2023-12-20T09:17:18;6.60;99.90
11934;DHT22;6026;48.784;9.198;2023-12-20T09:19:44;7.00;99.90
11934;DHT22;6026;48.784;9.198;2023-12-20T09:22:10;7.20;99.90
11934;DHT22;6026;48.784;9.198;2023-12-20T09:24:36;7.40;99.90
11934;DHT22;6026;48.784;9.198;2023-12-20T09:27:02;7.80;99.90
11934;DHT22;6026;48.784;9.198;2023-12-20T09:29:28;8.10;99.90
11934;DHT22;6026;48.784;9.198;2023-12-20T09:31:53;8.60;99.90
11934;DHT22;6026;48.784;9.198;2023-12-20T09:34:19;9.00;99.90
11934;DHT22;6026;48.784;9.198;2023-12-20T09:36:44;9.10;99.90
11934;DHT22;6026;48.784;9.198;2023-12-20T09:39:16;9.50;99.90
11934;DHT22;6026;48.784;9.198;2023-12-20T09:41:53;9.90;99.90
11934;DHT22;6026;48.784;9.198;2023-12-20T09:44:21;10.20;99.90
11934;DHT22;6026;48.784;9.198;2023-12-20T09:46:50;10.50;99.90
11934;DHT22;6026;48.784;9.198;2023-12-20T09:49:17;10.50;99.90
11934;DHT22;6026;48.784;9.198;2023-12-20T09:51:44;10.30;99.90
11934;DHT22;6026;48.784;9.198;2023-12-20T09:54:11;9.90;99.90
11934;DHT22;6026;48.784;9.198;2023-12-20T09:56:37;9.80;99.90
11934;DHT22;6026;48.784;9.198;2023-12-20T09:59:03;9.50;99.90
11934;DHT22;6026;48.784;9.198;2023-12-20T10:01:30;9.40;99.90
11934;DHT22;6026;48.784;9.198;2023-12-20T10:03:57;9.20;99.90
11934;DHT22;6026;48.784;9.198;2023-12-20T10:06:24;9.20;99.90
11934;DHT22;6026;48.784;9.198;2023-12-20T10:08:49;9.10;99.90
11934;DHT22;6026;48.784;9.198;2023-12-20T10:11:15;9.10;99.90
11934;DHT22;6026;48.784;9.198;2023-12-20T10:13:41;9.00;99.90
11934;DHT22;6026;48.784;9.198;2023-12-20T10:16:07;9.00;99.90
11934;DHT22;6026;48.784;9.198;2023-12-20T10:18:35;9.00;99.90
11934;DHT22;6026;48.784;9.198;2023-12-20T10:21:01;8.90;99.90
11934;DHT22;6026;48.784;9.198;2023-12-20T10:23:28;8.60;99.90
11934;DHT22;6026;48.784;9.198;2023-12-20T10:26:00;8.30;99.90
11934;DHT22;6026;48.784;9.198;2023-12-20T10:28:26;8.00;99.90
11934;DHT22;6026;48.784;9.198;2023-12-20T10:30:55;7.80;99.90
11934;DHT22;6026;48.784;9.198;2023-12-20T10:33:26;7.60;99.90
11934;DHT22;6026;48.784;9.198;2023-12-20T10:35:52;7.60;99.90
11934;DHT22;6026;48.784;9.198;2023-12-20T10:38:18;7.50;99.90
11934;DHT22;6026;48.784;9.198;2023-12-20T10:40:45;7.30;99.90
11934;DHT22;6026;48.784;9.198;2023-12-20T10:43:11;7.10;99.90
11934;DHT22;6026;48.784;9.198;2023-12-20T10:45:37;7.00;99.90
11934;DHT22;6026;48.784;9.198;2023-12-20T10:48:04;6.90;99.90
11934;DHT22;6026;48.784;9.198;2023-12-20T10:50:30;6.90;99.90
11934;DHT22;6026;48.784;9.198;2023-12-20T10:52:56;6.80;99.90
11934;DHT22;6026;48.784;9.198;2023-12-20T10:55:23;6.80;99.90
11934;DHT22;6026;48.784;9.198;2023-12-20T10:58:23;6.70;99.90
11934;DHT22;6026;48.784;9.198;2023-12-20T11:00:43;6.60;99.90
11934;DHT22;6026;48.784;9.198;2023-12-20T11:03:12;6.60;99.90
11934;DHT22;6026;48.784;9.198;2023-12-20T11:05:58;6.50;99.90
11934;DHT22;6026;48.784;9.198;2023-12-20T11:08:40;6.40;99.90
11934;DHT22;6026;48.784;9.198;2023-12-20T11:11:12;6.40;99.90
11934;DHT22;6026;48.784;9.198;2023-12-20T11:14:00;6.40;99.90
11934;DHT22;6026;48.784;9.198;2023-12-20T11:16:27;6.50;99.90
11934;DHT22;6026;48.784;9.198;2023-12-20T11:18:52;6.60;99.90
11934;DHT22;6026;48.784;9.198;2023-12-20T11:21:18;6.70;99.90
11934;DHT22;6026;48.784;9.198;2023-12-20T11:23:43;6.80;99.90
11934;DHT22;6026;48.784;9.198;2023-12-20T11:26:09;6.70;99.90
11934;DHT22;6026;48.784;9.198;2023-12-20T11:28:35;6.70;99.90
11934;DHT22;6026;48.784;9.198;2023-12-20T11:31:01;6.70;99.90
11934;DHT22;6026;48.784;9.198;2023-12-20T11:33:36;6.70;99.90
11934;DHT22;6026;48.784;9.198;2023-12-20T11:36:03;6.60;99.90
11934;DHT22;6026;48.784;9.198;2023-12-20T11:38:38;6.50;99.90
11934;DHT22;6026;48.784;9.198;2023-12-20T11:41:15;6.50;99.90
11934;DHT22;6026;48.784;9.198;2023-12-20T11:43:41;6.60;99.90
11934;DHT22;6026;48.784;9.198;2023-12-20T11:46:08;6.60;99.90
11934;DHT22;6026;48.784;9.198;2023-12-20T11:48:38;6.60;99.90
11934;DHT22;6026;48.784;9.198;2023-12-20T11:51:12;6.50;99.90
11934;DHT22;6026;48.784;9.198;2023-12-20T11:53:39;6.50;99.90
11934;DHT22;6026;48.784;9.198;2023-12-20T11:56:06;6.50;99.90
11934;DHT22;6026;48.784;9.198;2023-12-20T11:58:32;6.50;99.90
11934;DHT22;6026;48.784;9.198;2023-12-20T12:00:58;6.40;99.90
11934;DHT22;6026;48.784;9.198;2023-12-20T12:03:23;6.40;99.90
11934;DHT22;6026;48.784;9.198;2023-12-20T12:05:49;6.40;99.90
11934;DHT22;6026;48.784;9.198;2023-12-20T12:08:15;6.40;99.90
11934;DHT22;6026;48.784;9.198;2023-12-20T12:10:43;6.40;99.90
11934;DHT22;6026;48.784;9.198;2023-12-20T12:13:09;6.40;99.90
11934;DHT22;6026;48.784;9.198;2023-12-20T12:15:35;6.40;99.90
11934;DHT22;6026;48.784;9.198;2023-12-20T12:18:01;6.40;99.90
11934;DHT22;6026;48.784;9.198;2023-12-20T12:20:27;6.50;99.90
11934;DHT22;6026;48.784;9.198;2023-12-20T12:23:06;6.60;99.90
11934;DHT22;6026;48.784;9.198;2023-12-20T12:25:34;6.70;99.90
11934;DHT22;6026;48.784;9.198;2023-12-20T12:28:01;6.80;99.90
11934;DHT22;6026;48.784;9.198;2023-12-20T12:30:27;6.90;99.90
11934;DHT22;6026;48.784;9.198;2023-12-20T12:32:52;7.00;99.90
11934;DHT22;6026;48.784;9.198;2023-12-20T12:35:19;7.00;99.90
11934;DHT22;6026;48.784;9.198;2023-12-20T12:37:45;7.10;99.90
11934;DHT22;6026;48.784;9.198;2023-12-20T12:40:11;7.10;99.90
11934;DHT22;6026;48.784;9.198;2023-12-20T12:42:38;7.10;99.90
11934;DHT22;6026;48.784;9.198;2023-12-20T12:45:04;6.90;99.90
11934;DHT22;6026;48.784;9.198;2023-12-20T12:47:30;6.80;99.90
11934;DHT22;6026;48.784;9.198;2023-12-20T12:49:56;6.80;99.90
11934;DHT22;6026;48.784;9.198;2023-12-20T12:52:22;6.80;99.90
11934;DHT22;6026;48.784;9.198;2023-12-20T12:54:48;6.80;99.90
11934;DHT22;6026;48.784;9.198;2023-12-20T12:57:14;6.80;99.90
11934;DHT22;6026;48.784;9.198;2023-12-20T12:59:41;6.80;99.90
11934;DHT22;6026;48.784;9.198;2023-12-20T13:02:07;6.80;99.90
11934;DHT22;6026;48.784;9.198;2023-12-20T13:04:33;6.90;99.90
11934;DHT22;6026;48.784;9.198;2023-12-20T13:06:59;6.80;99.90
11934;DHT22;6026;48.784;9.198;2023-12-20T13:09:24;6.80;99.90
11934;DHT22;6026;48.784;9.198;2023-12-20T13:11:50;6.80;99.90
11934;DHT22;6026;48.784;9.198;2023-12-20T13:14:16;6.80;99.90
11934;DHT22;6026;48.784;9.198;2023-12-20T13:16:42;6.80;99.90
11934;DHT22;6026;48.784;9.198;2023-12-20T13:19:08;6.80;99.90
11934;DHT22;6026;48.784;9.198;2023-12-20T13:21:33;6.80;99.90
11934;DHT22;6026;48.784;9.198;2023-12-20T13:23:59;6.90;99.90
11934;DHT22;6026;48.784;9.198;2023-12-20T13:26:24;6.90;99.90
11934;DHT22;6026;48.784;9.198;2023-12-20T13:28:50;6.90;99.90
11934;DHT22;6026;48.784;9.198;2023-12-20T13:31:16;6.90;99.90
11934;DHT22;6026;48.784;9.198;2023-12-20T13:33:41;7.00;99.90
11934;DHT22;6026;48.784;9.198;2023-12-20T13:36:07;7.00;99.90
11934;DHT22;6026;48.784;9.198;2023-12-20T13:38:33;7.00;99.90
11934;DHT22;6026;48.784;9.198;2023-12-20T13:40:58;7.00;99.90
11934;DHT22;6026;48.784;9.198;2023-12-20T13:43:24;7.10;99.90
11934;DHT22;6026;48.784;9.198;2023-12-20T13:45:50;7.10;99.90
11934;DHT22;6026;48.784;9.198;2023-12-20T13:48:16;7.10;99.90
11934;DHT22;6026;48.784;9.198;2023-12-20T13:50:42;7.00;99.90
11934;DHT22;6026;48.784;9.198;2023-12-20T13:53:07;7.00;99.90
11934;DHT22;6026;48.784;9.198;2023-12-20T13:55:33;6.90;99.90
11934;DHT22;6026;48.784;9.198;2023-12-20T13:57:58;6.90;99.90
11934;DHT22;6026;48.784;9.198;2023-12-20T14:00:24;6.80;99.90
11934;DHT22;6026;48.784;9.198;2023-12-20T14:02:50;6.80;99.90
11934;DHT22;6026;48.784;9.198;2023-12-20T14:05:16;6.80;99.90
11934;DHT22;6026;48.784;9.198;2023-12-20T14:07:43;6.70;99.90
11934;DHT22;6026;48.784;9.198;2023-12-20T14:10:13;6.70;99.90
11934;DHT22;6026;48.784;9.198;2023-12-20T14:12:39;7.00;99.90
11934;DHT22;6026;48.784;9.198;2023-12-20T14:15:05;6.80;99.90
11934;DHT22;6026;48.784;9.198;2023-12-20T14:17:39;6.70;99.90
11934;DHT22;6026;48.784;9.198;2023-12-20T14:20:08;6.70;99.90
11934;DHT22;6026;48.784;9.198;2023-12-20T14:22:35;6.70;99.90
11934;DHT22;6026;48.784;9.198;2023-12-20T14:25:00;6.70;99.90
11934;DHT22;6026;48.784;9.198;2023-12-20T14:27:26;6.60;99.90
11934;DHT22;6026;48.784;9.198;2023-12-20T14:29:55;6.60;99.90
11934;DHT22;6026;48.784;9.198;2023-12-20T14:32:21;6.60;99.90
11934;DHT22;6026;48.784;9.198;2023-12-20T14:34:46;6.60;99.90
11934;DHT22;6026;48.784;9.198;2023-12-20T14:37:12;6.50;99.90
11934;DHT22;6026;48.784;9.198;2023-12-20T14:39:38;6.50;99.90
11934;DHT22;6026;48.784;9.198;2023-12-20T14:42:10;6.50;99.90
11934;DHT22;6026;48.784;9.198;2023-12-20T14:44:43;6.40;99.90
11934;DHT22;6026;48.784;9.198;2023-12-20T14:47:08;6.40;99.90
11934;DHT22;6026;48.784;9.198;2023-12-20T14:49:34;6.40;99.90
11934;DHT22;6026;48.784;9.198;2023-12-20T14:52:01;6.30;99.90
11934;DHT22;6026;48.784;9.198;2023-12-20T14:54:26;6.20;99.90
11934;DHT22;6026;48.784;9.198;2023-12-20T14:56:52;6.20;99.90
11934;DHT22;6026;48.784;9.198;2023-12-20T14:59:18;6.20;99.90
11934;DHT22;6026;48.784;9.198;2023-12-20T15:01:44;6.10;99.90
11934;DHT22;6026;48.784;9.198;2023-12-20T15:04:10;6.10;99.90
11934;DHT22;6026;48.784;9.198;2023-12-20T15:06:36;6.20;99.90
11934;DHT22;6026;48.784;9.198;2023-12-20T15:09:02;6.10;99.90
11934;DHT22;6026;48.784;9.198;2023-12-20T15:11:33;6.20;99.90
11934;DHT22;6026;48.784;9.198;2023-12-20T15:13:59;6.10;99.90
11934;DHT22;6026;48.784;9.198;2023-12-20T15:16:26;6.10;99.90
11934;DHT22;6026;48.784;9.198;2023-12-20T15:18:52;6.20;99.90
11934;DHT22;6026;48.784;9.198;2023-12-20T15:21:19;6.10;99.90
11934;DHT22;6026;48.784;9.198;2023-12-20T15:23:44;6.10;99.90
11934;DHT22;6026;48.784;9.198;2023-12-20T15:26:21;6.10;99.90
11934;DHT22;6026;48.784;9.198;2023-12-20T15:28:46;6.10;99.90
11934;DHT22;6026;48.784;9.198;2023-12-20T15:31:12;6.00;99.90
11934;DHT22;6026;48.784;9.198;2023-12-20T15:33:39;6.00;99.90
11934;DHT22;6026;48.784;9.198;2023-12-20T15:36:05;6.00;99.90
11934;DHT22;6026;48.784;9.198;2023-12-20T15:38:30;6.00;99.90
11934;DHT22;6026;48.784;9.198;2023-12-20T15:40:56;6.00;99.90
11934;DHT22;6026;48.784;9.198;2023-12-20T15:43:21;5.90;99.90
11934;DHT22;6026;48.784;9.198;2023-12-20T15:45:47;5.90;99.90
11934;DHT22;6026;48.784;9.198;2023-12-20T15:48:12;5.90;99.90
11934;DHT22;6026;48.784;9.198;2023-12-20T15:50:43;5.90;99.90
11934;DHT22;6026;48.784;9.198;2023-12-20T15:53:09;5.80;99.90
11934;DHT22;6026;48.784;9.198;2023-12-20T15:55:35;5.90;99.90